Time,TemperatureF,DewpointF,PressureIn,WindDirection,WindDirectionDegrees,WindSpeedMPH,WindSpeedGustMPH,Humidity,HourlyPrecipIn,Conditions,Clouds,dailyrainin,SoftwareType,DateUTC
2013-06-14 00:03:00,73.2,60.8,28.38,SSE,149,3.6,5.8,65,0.00,,---,0.00,VWS V14.01,2013-06-14 05:03:00,
2013-06-14 00:09:00,73.2,60.8,28.38,ESE,117,0.0,5.8,65,0.00,,---,0.00,VWS V14.01,2013-06-14 05:09:00,
2013-06-14 00:14:00,73.2,61.2,28.38,SE,146,2.2,5.8,66,0.00,,---,0.00,VWS V14.01,2013-06-14 05:14:00,
2013-06-14 00:19:00,73.2,61.2,28.38,SSE,161,3.1,5.8,66,0.00,,---,0.00,VWS V14.01,2013-06-14 05:19:00,
2013-06-14 00:24:00,73.2,61.2,28.38,SSE,147,0.0,5.8,66,0.00,,---,0.00,VWS V14.01,2013-06-14 05:24:00,
2013-06-14 00:29:00,73.2,61.2,28.38,South,185,0.0,5.8,66,0.00,,---,0.00,VWS V14.01,2013-06-14 05:29:00,
2013-06-14 00:34:00,73.4,61.4,28.38,East,89,2.2,6.3,66,0.00,,---,0.00,VWS V14.01,2013-06-14 05:34:00,
2013-06-14 00:39:00,73.4,61.4,28.38,SSE,147,2.7,6.3,66,0.00,,---,0.00,VWS V14.01,2013-06-14 05:39:00,
2013-06-14 00:44:00,73.4,61.4,28.38,SSE,150,0.0,6.3,66,0.00,,---,0.00,VWS V14.01,2013-06-14 05:44:00,
2013-06-14 00:49:00,73.4,61.4,28.38,SSE,149,3.6,6.3,66,0.00,,---,0.00,VWS V14.01,2013-06-14 05:49:00,
2013-06-14 00:55:00,73.4,61.4,28.38,ESE,117,4.0,6.3,66,0.00,,---,0.00,VWS V14.01,2013-06-14 05:55:00,
2013-06-14 01:00:00,73.4,61.8,28.38,SE,131,3.6,6.3,67,0.00,,---,0.00,VWS V14.01,2013-06-14 06:00:00,
2013-06-14 01:05:00,73.6,62.0,28.38,SSE,167,0.0,4.9,67,0.00,,---,0.00,VWS V14.01,2013-06-14 06:05:00,
2013-06-14 01:10:00,73.6,62.0,28.38,SSE,166,2.7,5.4,67,0.00,,---,0.00,VWS V14.01,2013-06-14 06:10:00,
2013-06-14 01:15:00,73.6,62.0,28.38,SE,132,0.0,5.4,67,0.00,,---,0.00,VWS V14.01,2013-06-14 06:15:00,
2013-06-14 01:20:00,73.6,62.4,28.38,SE,129,0.0,5.4,68,0.00,,---,0.00,VWS V14.01,2013-06-14 06:20:00,
2013-06-14 01:25:00,73.6,62.4,28.38,SSE,163,3.6,5.4,68,0.00,,---,0.00,VWS V14.01,2013-06-14 06:25:00,
2013-06-14 01:30:00,73.6,62.4,28.38,South,171,3.1,5.8,68,0.00,,---,0.00,VWS V14.01,2013-06-14 06:30:00,
2013-06-14 01:35:00,73.8,62.5,28.38,SE,144,0.0,5.8,68,0.00,,---,0.00,VWS V14.01,2013-06-14 06:35:00,
2013-06-14 01:40:00,73.8,62.5,28.41,SE,145,0.0,5.8,68,0.00,,---,0.00,VWS V14.01,2013-06-14 06:40:00,
2013-06-14 01:46:00,73.8,62.5,28.41,ESE,117,0.0,5.8,68,0.00,,---,0.00,VWS V14.01,2013-06-14 06:46:00,
2013-06-14 01:51:00,73.8,63.0,28.38,ESE,118,0.0,5.8,69,0.00,,---,0.00,VWS V14.01,2013-06-14 06:51:00,
2013-06-14 01:56:00,73.8,63.0,28.38,SSE,158,0.0,5.8,69,0.00,,---,0.00,VWS V14.01,2013-06-14 06:56:00,
2013-06-14 02:01:00,73.6,62.8,28.38,South,176,0.0,0.0,69,0.00,,---,0.00,VWS V14.01,2013-06-14 07:01:00,
2013-06-14 02:06:00,73.6,62.8,28.38,South,173,0.0,3.6,69,0.00,,---,0.00,VWS V14.01,2013-06-14 07:06:00,
2013-06-14 02:11:00,73.6,62.8,28.38,SSE,164,2.2,4.0,69,0.00,,---,0.00,VWS V14.01,2013-06-14 07:11:00,
2013-06-14 02:16:00,73.6,62.8,28.38,ESE,111,2.2,4.9,69,0.00,,---,0.00,VWS V14.01,2013-06-14 07:16:00,
2013-06-14 02:21:00,73.4,62.6,28.38,SW,222,0.0,4.9,69,0.00,,---,0.00,VWS V14.01,2013-06-14 07:21:00,
2013-06-14 02:26:00,73.4,63.0,28.38,SSE,151,3.6,4.9,70,0.00,,---,0.00,VWS V14.01,2013-06-14 07:26:00,
2013-06-14 02:31:00,73.4,63.0,28.38,North,353,0.0,4.9,70,0.00,,---,0.00,VWS V14.01,2013-06-14 07:31:00,
2013-06-14 02:37:00,73.4,63.0,28.38,SSE,159,3.1,4.9,70,0.00,,---,0.00,VWS V14.01,2013-06-14 07:37:00,
2013-06-14 02:42:00,73.4,63.0,28.38,South,180,0.0,5.4,70,0.00,,---,0.00,VWS V14.01,2013-06-14 07:42:00,
2013-06-14 02:47:00,73.4,63.0,28.38,SSE,151,3.1,5.4,70,0.00,,---,0.00,VWS V14.01,2013-06-14 07:47:00,
2013-06-14 02:52:00,73.4,63.0,28.38,SSE,148,2.7,5.4,70,0.00,,---,0.00,VWS V14.01,2013-06-14 07:52:00,
2013-06-14 02:57:00,73.4,63.0,28.38,SE,144,0.0,5.4,70,0.00,,---,0.00,VWS V14.01,2013-06-14 07:57:00,
2013-06-14 03:02:00,73.2,62.9,28.38,SE,144,0.0,2.7,70,0.00,,---,0.00,VWS V14.01,2013-06-14 08:02:00,
2013-06-14 03:07:00,73.2,62.9,28.35,South,183,0.0,4.0,70,0.00,,---,0.00,VWS V14.01,2013-06-14 08:07:00,
2013-06-14 03:12:00,73.0,62.7,28.35,NNE,22,2.7,5.4,70,0.00,,---,0.00,VWS V14.01,2013-06-14 08:12:00,
2013-06-14 03:17:00,73.2,62.9,28.35,South,173,3.1,5.4,70,0.00,,---,0.00,VWS V14.01,2013-06-14 08:17:00,
2013-06-14 03:22:00,73.2,62.9,28.35,ESE,120,3.1,5.4,70,0.00,,---,0.00,VWS V14.01,2013-06-14 08:22:00,
2013-06-14 03:28:00,73.2,62.9,28.35,ESE,118,2.7,5.4,70,0.00,,---,0.00,VWS V14.01,2013-06-14 08:28:00,
2013-06-14 03:33:00,73.0,62.7,28.35,WSW,239,3.1,5.4,70,0.00,,---,0.00,VWS V14.01,2013-06-14 08:33:00,
2013-06-14 03:38:00,73.0,62.7,28.35,SE,126,0.0,5.4,70,0.00,,---,0.00,VWS V14.01,2013-06-14 08:38:00,
2013-06-14 03:43:00,72.9,62.5,28.35,ESE,111,3.1,5.4,70,0.00,,---,0.00,VWS V14.01,2013-06-14 08:43:00,
2013-06-14 03:48:00,72.9,62.5,28.35,South,170,2.7,5.8,70,0.00,,---,0.00,VWS V14.01,2013-06-14 08:48:00,
2013-06-14 03:53:00,72.7,62.3,28.32,SE,138,0.0,5.8,70,0.00,,---,0.00,VWS V14.01,2013-06-14 08:53:00,
2013-06-14 03:58:00,72.5,62.6,28.32,SE,128,3.6,5.8,71,0.00,,---,0.00,VWS V14.01,2013-06-14 08:58:00,
2013-06-14 04:03:00,72.5,62.6,28.32,SSE,156,3.1,5.8,71,0.00,,---,0.00,VWS V14.01,2013-06-14 09:03:00,
2013-06-14 04:08:00,72.5,62.6,28.32,ESE,123,2.2,5.8,71,0.00,,---,0.00,VWS V14.01,2013-06-14 09:08:00,
2013-06-14 04:13:00,72.5,62.6,28.32,SSW,200,0.0,5.8,71,0.00,,---,0.00,VWS V14.01,2013-06-14 09:13:00,
2013-06-14 04:18:00,72.3,62.4,28.32,SSE,157,3.6,5.8,71,0.00,,---,0.00,VWS V14.01,2013-06-14 09:18:00,
2013-06-14 04:24:00,72.3,62.4,28.32,SE,143,2.7,5.8,71,0.00,,---,0.00,VWS V14.01,2013-06-14 09:24:00,
2013-06-14 04:29:00,72.3,62.8,28.32,ESE,120,3.1,5.8,72,0.00,,---,0.00,VWS V14.01,2013-06-14 09:29:00,
2013-06-14 04:34:00,72.1,62.6,28.32,ESE,122,0.0,5.8,72,0.00,,---,0.00,VWS V14.01,2013-06-14 09:34:00,
2013-06-14 04:39:00,72.3,62.8,28.32,SSE,164,0.0,5.8,72,0.00,,---,0.00,VWS V14.01,2013-06-14 09:39:00,
2013-06-14 04:44:00,72.3,62.8,28.32,SSW,199,0.0,5.8,72,0.00,,---,0.00,VWS V14.01,2013-06-14 09:44:00,
2013-06-14 04:49:00,72.5,63.0,28.32,SSW,203,0.0,5.8,72,0.00,,---,0.00,VWS V14.01,2013-06-14 09:49:00,
2013-06-14 04:54:00,72.5,63.0,28.35,North,7,3.6,5.8,72,0.00,,---,0.00,VWS V14.01,2013-06-14 09:54:00,
2013-06-14 04:59:00,72.5,63.0,28.35,North,2,2.7,5.8,72,0.00,,---,0.00,VWS V14.01,2013-06-14 09:59:00,
2013-06-14 05:04:00,72.5,63.0,28.35,North,2,0.0,2.2,72,0.00,,---,0.00,VWS V14.01,2013-06-14 10:04:00,
2013-06-14 05:09:00,72.5,63.4,28.38,North,2,0.0,2.2,73,0.00,,---,0.00,VWS V14.01,2013-06-14 10:09:00,
2013-06-14 05:15:00,72.3,63.2,28.38,North,2,0.0,2.2,73,0.00,,---,0.00,VWS V14.01,2013-06-14 10:15:00,
2013-06-14 05:20:00,72.1,63.0,28.38,North,0,4.0,4.0,73,0.00,,---,0.00,VWS V14.01,2013-06-14 10:20:00,
2013-06-14 05:25:00,72.3,63.2,28.38,SW,233,0.0,4.0,73,0.00,,---,0.00,VWS V14.01,2013-06-14 10:25:00,
2013-06-14 05:30:00,72.3,63.2,28.38,SW,233,0.0,4.0,73,0.00,,---,0.00,VWS V14.01,2013-06-14 10:30:00,
2013-06-14 05:35:00,72.1,63.0,28.38,SW,233,0.0,4.0,73,0.00,,---,0.00,VWS V14.01,2013-06-14 10:35:00,
2013-06-14 05:40:00,71.8,62.7,28.38,SSE,168,0.0,4.0,73,0.00,,---,0.00,VWS V14.01,2013-06-14 10:40:00,
2013-06-14 05:45:00,71.6,62.5,28.38,SSE,168,0.0,4.0,73,0.00,,---,0.00,VWS V14.01,2013-06-14 10:45:00,
2013-06-14 05:50:00,71.4,62.7,28.38,NNE,16,5.4,5.4,74,0.00,,---,0.00,VWS V14.01,2013-06-14 10:50:00,
2013-06-14 05:55:00,71.4,63.1,28.38,North,357,2.7,6.3,75,0.00,,---,0.00,VWS V14.01,2013-06-14 10:55:00,
2013-06-14 06:00:00,71.2,62.9,28.38,NNE,22,0.0,0.0,75,0.00,,---,0.00,VWS V14.01,2013-06-14 11:00:00,
2013-06-14 06:06:00,70.9,62.6,28.38,NNE,22,0.0,0.0,75,0.00,,---,0.00,VWS V14.01,2013-06-14 11:06:00,
2013-06-14 06:11:00,70.7,62.4,28.38,SE,126,4.0,4.0,75,0.00,,---,0.00,VWS V14.01,2013-06-14 11:11:00,
2013-06-14 06:16:00,70.9,63.3,28.38,SE,128,4.0,6.3,77,0.00,,---,0.00,VWS V14.01,2013-06-14 11:16:00,
2013-06-14 06:21:00,71.2,64.0,28.38,SSW,212,0.0,6.3,78,0.00,,---,0.00,VWS V14.01,2013-06-14 11:21:00,
2013-06-14 06:26:00,71.6,64.0,28.38,SSW,211,0.0,6.3,77,0.00,,---,0.00,VWS V14.01,2013-06-14 11:26:00,
2013-06-14 06:31:00,71.8,64.2,28.38,North,6,2.7,6.3,77,0.00,,---,0.00,VWS V14.01,2013-06-14 11:31:00,
2013-06-14 06:36:00,71.4,63.5,28.38,North,5,2.7,6.3,76,0.00,,---,0.00,VWS V14.01,2013-06-14 11:36:00,
2013-06-14 06:41:00,71.1,63.1,28.38,North,5,3.6,6.3,76,0.00,,---,0.00,VWS V14.01,2013-06-14 11:41:00,
2013-06-14 06:46:00,70.7,62.4,28.38,NNW,346,2.2,6.3,75,0.00,,---,0.00,VWS V14.01,2013-06-14 11:46:00,
2013-06-14 06:52:00,70.5,62.6,28.38,North,0,2.2,6.3,76,0.00,,---,0.00,VWS V14.01,2013-06-14 11:52:00,
2013-06-14 06:57:00,70.5,63.0,28.38,North,0,0.0,6.3,77,0.00,,---,0.00,VWS V14.01,2013-06-14 11:57:00,
2013-06-14 07:02:00,70.7,63.5,28.38,North,0,0.0,0.0,78,0.00,,---,0.00,VWS V14.01,2013-06-14 12:02:00,
2013-06-14 07:07:00,70.9,63.7,28.35,ENE,75,0.0,4.0,78,0.00,,---,0.00,VWS V14.01,2013-06-14 12:07:00,
2013-06-14 07:12:00,71.4,64.6,28.35,ENE,69,0.0,4.0,79,0.00,,---,0.00,VWS V14.01,2013-06-14 12:12:00,
2013-06-14 07:17:00,71.8,64.9,28.35,NE,37,0.0,4.0,79,0.00,,---,0.00,VWS V14.01,2013-06-14 12:17:00,
2013-06-14 07:22:00,72.1,65.3,28.35,NE,35,0.0,4.0,79,0.00,,---,0.00,VWS V14.01,2013-06-14 12:22:00,
2013-06-14 07:27:00,72.5,65.3,28.35,SE,139,3.1,4.0,78,0.00,,---,0.00,VWS V14.01,2013-06-14 12:27:00,
2013-06-14 07:32:00,72.9,65.6,28.35,SSE,164,0.0,4.9,78,0.00,,---,0.00,VWS V14.01,2013-06-14 12:32:00,
2013-06-14 07:37:00,73.4,65.8,28.35,South,180,0.0,5.4,77,0.00,,---,0.00,VWS V14.01,2013-06-14 12:37:00,
2013-06-14 07:43:00,74.1,66.1,28.35,SSE,163,0.0,5.4,76,0.00,,---,0.00,VWS V14.01,2013-06-14 12:43:00,
2013-06-14 07:48:00,75.0,66.6,28.35,SSE,161,0.0,5.4,75,0.00,,---,0.00,VWS V14.01,2013-06-14 12:48:00,
2013-06-14 07:53:00,75.7,66.9,28.35,SSE,158,2.2,5.4,74,0.00,,---,0.00,VWS V14.01,2013-06-14 12:53:00,
2013-06-14 07:58:00,76.5,66.8,28.35,SE,142,0.0,5.8,72,0.00,,---,0.00,VWS V14.01,2013-06-14 12:58:00,
2013-06-14 08:03:00,77.2,66.7,28.35,SSW,203,2.7,4.0,70,0.00,,---,0.00,VWS V14.01,2013-06-14 13:03:00,
2013-06-14 08:08:00,77.7,66.3,28.38,WNW,285,3.1,4.0,68,0.00,,---,0.00,VWS V14.01,2013-06-14 13:08:00,
2013-06-14 08:13:00,78.3,66.4,28.38,North,11,0.0,4.9,67,0.00,,---,0.00,VWS V14.01,2013-06-14 13:13:00,
2013-06-14 08:18:00,78.6,66.3,28.38,NNE,15,3.6,5.4,66,0.00,,---,0.00,VWS V14.01,2013-06-14 13:18:00,
2013-06-14 08:23:00,78.8,66.1,28.38,North,9,2.2,5.8,65,0.00,,---,0.00,VWS V14.01,2013-06-14 13:23:00,
2013-06-14 08:28:00,78.6,65.4,28.38,North,6,0.0,5.8,64,0.00,,---,0.00,VWS V14.01,2013-06-14 13:28:00,
2013-06-14 08:34:00,78.6,65.4,28.38,North,6,3.1,5.8,64,0.00,,---,0.00,VWS V14.01,2013-06-14 13:34:00,
2013-06-14 08:39:00,78.6,65.9,28.38,North,6,2.7,5.8,65,0.00,,---,0.00,VWS V14.01,2013-06-14 13:39:00,
2013-06-14 08:44:00,78.6,65.9,28.38,NNE,26,6.7,6.7,65,0.00,,---,0.00,VWS V14.01,2013-06-14 13:44:00,
2013-06-14 08:49:00,79.0,66.2,28.38,North,357,3.1,6.7,65,0.00,,---,0.00,VWS V14.01,2013-06-14 13:49:00,
2013-06-14 08:54:00,79.3,66.6,28.38,SSE,167,4.0,6.7,65,0.00,,---,0.00,VWS V14.01,2013-06-14 13:54:00,
2013-06-14 08:59:00,79.9,67.1,28.38,NNE,23,3.1,6.7,65,0.00,,---,0.00,VWS V14.01,2013-06-14 13:59:00,
2013-06-14 09:04:00,80.4,66.7,28.38,NNE,26,2.7,5.4,63,0.00,,---,0.00,VWS V14.01,2013-06-14 14:04:00,
2013-06-14 09:09:00,80.8,66.6,28.38,West,269,0.0,5.4,62,0.00,,---,0.00,VWS V14.01,2013-06-14 14:09:00,
2013-06-14 09:14:00,81.1,66.9,28.38,North,357,2.2,5.4,62,0.00,,---,0.00,VWS V14.01,2013-06-14 14:14:00,
2013-06-14 09:19:00,81.7,67.4,28.38,NNW,334,0.0,5.4,62,0.00,,---,0.00,VWS V14.01,2013-06-14 14:19:00,
2013-06-14 09:25:00,82.0,67.3,28.38,North,0,3.6,6.3,61,0.00,,---,0.00,VWS V14.01,2013-06-14 14:25:00,
2013-06-14 09:30:00,82.6,67.3,28.38,NE,36,4.0,6.3,60,0.00,,---,0.00,VWS V14.01,2013-06-14 14:30:00,
2013-06-14 09:35:00,82.9,67.2,28.38,North,353,5.4,6.3,59,0.00,,---,0.00,VWS V14.01,2013-06-14 14:35:00,
2013-06-14 09:40:00,83.1,67.3,28.35,North,349,0.0,6.3,59,0.00,,---,0.00,VWS V14.01,2013-06-14 14:40:00,
2013-06-14 09:45:00,83.3,67.0,28.35,NE,47,0.0,6.3,58,0.00,,---,0.00,VWS V14.01,2013-06-14 14:45:00,
2013-06-14 09:50:00,83.7,67.3,28.35,NNE,25,0.0,6.3,58,0.00,,---,0.00,VWS V14.01,2013-06-14 14:50:00,
2013-06-14 09:55:00,84.2,67.8,28.35,South,173,2.2,6.3,58,0.00,,---,0.00,VWS V14.01,2013-06-14 14:55:00,
2013-06-14 10:00:00,84.7,68.3,28.35,SSE,147,4.0,4.0,58,0.00,,---,0.00,VWS V14.01,2013-06-14 15:00:00,
2013-06-14 10:05:00,85.6,69.2,28.35,East,96,2.2,6.7,58,0.00,,---,0.00,VWS V14.01,2013-06-14 15:05:00,
2013-06-14 10:10:00,86.5,68.5,28.35,SSE,168,3.6,6.7,55,0.00,,---,0.00,VWS V14.01,2013-06-14 15:10:00,
2013-06-14 10:16:00,87.3,68.1,28.35,SSE,152,3.6,6.7,53,0.00,,---,0.00,VWS V14.01,2013-06-14 15:16:00,
2013-06-14 10:21:00,88.0,67.6,28.35,SSE,164,6.7,7.6,51,0.00,,---,0.00,VWS V14.01,2013-06-14 15:21:00,
2013-06-14 10:26:00,88.2,66.6,28.35,SSE,162,3.6,7.6,49,0.00,,---,0.00,VWS V14.01,2013-06-14 15:26:00,
2013-06-14 10:31:00,88.0,65.2,28.35,SE,135,3.6,7.6,47,0.00,,---,0.00,VWS V14.01,2013-06-14 15:31:00,
2013-06-14 10:36:00,87.6,65.5,28.35,SSE,156,3.1,7.6,48,0.00,,---,0.00,VWS V14.01,2013-06-14 15:36:00,
2013-06-14 10:41:00,88.0,67.0,28.35,ENE,72,2.2,7.6,50,0.00,,---,0.00,VWS V14.01,2013-06-14 15:41:00,
2013-06-14 10:46:00,88.7,67.1,28.35,SSE,160,5.4,7.6,49,0.00,,---,0.00,VWS V14.01,2013-06-14 15:46:00,
2013-06-14 10:51:00,89.2,66.4,28.32,SSE,149,2.7,8.1,47,0.00,,---,0.00,VWS V14.01,2013-06-14 15:51:00,
2013-06-14 10:56:00,90.0,66.4,28.32,SSE,155,2.7,8.1,46,0.00,,---,0.00,VWS V14.01,2013-06-14 15:56:00,
2013-06-14 11:01:00,90.5,65.6,28.32,SSE,164,0.0,3.6,44,0.00,,---,0.00,VWS V14.01,2013-06-14 16:01:00,
2013-06-14 11:07:00,90.9,65.3,28.32,South,190,5.8,8.3,43,0.00,,---,0.00,VWS V14.01,2013-06-14 16:07:00,
2013-06-14 11:12:00,91.0,65.4,28.32,SE,143,0.0,8.3,43,0.00,,---,0.00,VWS V14.01,2013-06-14 16:12:00,
2013-06-14 11:17:00,91.6,66.6,28.32,SSE,151,2.7,8.3,44,0.00,,---,0.00,VWS V14.01,2013-06-14 16:17:00,
2013-06-14 11:22:00,92.3,65.9,28.32,SW,227,4.0,8.3,42,0.00,,---,0.00,VWS V14.01,2013-06-14 16:22:00,
2013-06-14 11:27:00,92.5,64.7,28.32,ESE,123,2.7,8.3,40,0.00,,---,0.00,VWS V14.01,2013-06-14 16:27:00,
2013-06-14 11:32:00,92.7,65.5,28.32,SE,138,5.4,8.3,41,0.00,,---,0.00,VWS V14.01,2013-06-14 16:32:00,
2013-06-14 11:37:00,92.8,64.3,28.32,SE,133,3.6,8.3,39,0.00,,---,0.00,VWS V14.01,2013-06-14 16:37:00,
2013-06-14 11:42:00,93.0,65.2,28.32,South,182,4.0,8.3,40,0.00,,---,0.00,VWS V14.01,2013-06-14 16:42:00,
2013-06-14 11:47:00,93.4,64.7,28.32,ESE,102,3.1,8.3,39,0.00,,---,0.00,VWS V14.01,2013-06-14 16:47:00,
2013-06-14 11:53:00,93.7,65.1,28.32,ESE,114,3.6,8.3,39,0.00,,---,0.00,VWS V14.01,2013-06-14 16:53:00,
2013-06-14 11:58:00,94.3,64.8,28.32,SSE,167,4.0,8.3,38,0.00,,---,0.00,VWS V14.01,2013-06-14 16:58:00,
2013-06-14 12:03:00,94.6,64.3,28.32,SSE,155,2.7,5.4,37,0.00,,---,0.00,VWS V14.01,2013-06-14 17:03:00,
2013-06-14 12:08:00,95.0,64.7,28.32,SSE,153,4.0,5.4,37,0.00,,---,0.00,VWS V14.01,2013-06-14 17:08:00,
2013-06-14 12:13:00,95.2,63.2,28.32,ESE,120,3.6,6.3,35,0.00,,---,0.00,VWS V14.01,2013-06-14 17:13:00,
2013-06-14 12:18:00,95.4,62.6,28.32,SW,224,6.7,6.7,34,0.00,,---,0.00,VWS V14.01,2013-06-14 17:18:00,
2013-06-14 12:23:00,95.7,62.9,28.32,South,184,4.9,6.7,34,0.00,,---,0.00,VWS V14.01,2013-06-14 17:23:00,
2013-06-14 12:28:00,96.3,63.4,28.32,West,277,3.6,6.7,34,0.00,,---,0.00,VWS V14.01,2013-06-14 17:28:00,
2013-06-14 12:33:00,96.4,60.9,28.32,South,188,3.6,10.1,31,0.00,,---,0.00,VWS V14.01,2013-06-14 17:33:00,
2013-06-14 12:39:00,96.6,60.1,28.32,SW,229,6.3,10.1,30,0.00,,---,0.00,VWS V14.01,2013-06-14 17:39:00,
2013-06-14 12:44:00,96.6,60.1,28.32,SSW,209,4.0,10.1,30,0.00,,---,0.00,VWS V14.01,2013-06-14 17:44:00,
2013-06-14 12:49:00,96.4,60.0,28.32,West,259,5.4,10.1,30,0.00,,---,0.00,VWS V14.01,2013-06-14 17:49:00,
2013-06-14 12:54:00,96.3,59.8,28.29,SSE,165,2.7,10.1,30,0.00,,---,0.00,VWS V14.01,2013-06-14 17:54:00,
2013-06-14 12:59:00,96.4,59.0,28.29,South,176,3.1,10.1,29,0.00,,---,0.00,VWS V14.01,2013-06-14 17:59:00,
2013-06-14 13:04:00,96.6,59.2,28.29,WSW,258,6.3,8.3,29,0.00,,---,0.00,VWS V14.01,2013-06-14 18:04:00,
2013-06-14 13:09:00,97.0,57.5,28.29,South,180,5.4,8.3,27,0.00,,---,0.00,VWS V14.01,2013-06-14 18:09:00,
2013-06-14 13:14:00,97.2,57.6,28.29,SE,136,8.3,10.1,27,0.00,,---,0.00,VWS V14.01,2013-06-14 18:14:00,
2013-06-14 13:19:00,97.5,59.0,28.29,SSW,201,5.4,10.1,28,0.00,,---,0.00,VWS V14.01,2013-06-14 18:19:00,
2013-06-14 13:24:00,97.9,58.2,28.29,ESE,111,5.4,10.1,27,0.00,,---,0.00,VWS V14.01,2013-06-14 18:24:00,
2013-06-14 13:30:00,98.1,58.4,28.29,SSW,197,7.6,10.5,27,0.00,,---,0.00,VWS V14.01,2013-06-14 18:30:00,
2013-06-14 13:35:00,98.1,57.4,28.29,SSW,194,4.9,10.5,26,0.00,,---,0.00,VWS V14.01,2013-06-14 18:35:00,
2013-06-14 13:40:00,97.9,57.2,28.29,South,172,3.1,10.5,26,0.00,,---,0.00,VWS V14.01,2013-06-14 18:40:00,
2013-06-14 13:45:00,98.1,57.4,28.29,West,270,2.7,11.0,26,0.00,,---,0.00,VWS V14.01,2013-06-14 18:45:00,
2013-06-14 13:50:00,98.2,57.5,28.29,South,189,5.4,11.0,26,0.00,,---,0.00,VWS V14.01,2013-06-14 18:50:00,
2013-06-14 13:55:00,98.1,57.4,28.29,West,261,4.9,11.0,26,0.00,,---,0.00,VWS V14.01,2013-06-14 18:55:00,
2013-06-14 14:00:00,98.1,57.4,28.29,NNW,331,5.4,5.4,26,0.00,,---,0.00,VWS V14.01,2013-06-14 19:00:00,
2013-06-14 14:05:00,98.2,57.5,28.29,SE,143,8.7,10.1,26,0.00,,---,0.00,VWS V14.01,2013-06-14 19:05:00,
2013-06-14 14:11:00,98.1,57.4,28.26,SSE,158,6.3,12.3,26,0.00,,---,0.00,VWS V14.01,2013-06-14 19:11:00,
2013-06-14 14:16:00,98.2,57.5,28.26,WSW,247,5.4,12.3,26,0.00,,---,0.00,VWS V14.01,2013-06-14 19:16:00,
2013-06-14 14:21:00,98.2,57.5,28.26,ENE,64,6.3,12.3,26,0.00,,---,0.00,VWS V14.01,2013-06-14 19:21:00,
2013-06-14 14:26:00,98.6,56.7,28.26,SE,130,7.6,12.3,25,0.00,,---,0.00,VWS V14.01,2013-06-14 19:26:00,
2013-06-14 14:31:00,98.8,56.9,28.26,SE,128,7.6,12.3,25,0.00,,---,0.00,VWS V14.01,2013-06-14 19:31:00,
2013-06-14 14:36:00,99.0,55.9,28.26,South,184,6.3,12.3,24,0.00,,---,0.00,VWS V14.01,2013-06-14 19:36:00,
2013-06-14 14:41:00,99.0,55.9,28.26,SSE,165,4.0,12.3,24,0.00,,---,0.00,VWS V14.01,2013-06-14 19:41:00,
2013-06-14 14:46:00,99.1,56.0,28.26,WNW,294,8.7,12.3,24,0.00,,---,0.00,VWS V14.01,2013-06-14 19:46:00,
2013-06-14 14:51:00,99.1,54.9,28.26,ESE,119,4.9,12.3,23,0.00,,---,0.00,VWS V14.01,2013-06-14 19:51:00,
2013-06-14 14:56:00,99.1,56.0,28.26,ESE,108,3.1,12.3,24,0.00,,---,0.00,VWS V14.01,2013-06-14 19:56:00,
2013-06-14 15:02:00,99.1,54.9,28.26,South,176,3.6,6.3,23,0.00,,---,0.00,VWS V14.01,2013-06-14 20:02:00,
2013-06-14 15:07:00,99.3,53.8,28.23,ESE,118,3.1,8.7,22,0.00,,---,0.00,VWS V14.01,2013-06-14 20:07:00,
2013-06-14 15:12:00,99.3,51.2,28.23,South,171,5.4,12.8,20,0.00,,---,0.00,VWS V14.01,2013-06-14 20:12:00,
2013-06-14 15:17:00,99.1,52.4,28.23,ESE,112,6.3,12.8,21,0.00,,---,0.00,VWS V14.01,2013-06-14 20:17:00,
2013-06-14 15:22:00,99.0,53.5,28.23,ESE,104,4.9,12.8,22,0.00,,---,0.00,VWS V14.01,2013-06-14 20:22:00,
2013-06-14 15:27:00,99.0,50.9,28.23,South,177,3.1,12.8,20,0.00,,---,0.00,VWS V14.01,2013-06-14 20:27:00,
2013-06-14 15:32:00,98.6,50.6,28.23,SSE,165,5.4,15.4,20,0.00,,---,0.00,VWS V14.01,2013-06-14 20:32:00,
2013-06-14 15:37:00,98.4,51.8,28.23,ENE,70,6.3,15.4,21,0.00,,---,0.00,VWS V14.01,2013-06-14 20:37:00,
2013-06-14 15:42:00,98.2,51.7,28.23,SSW,203,6.3,15.4,21,0.00,,---,0.00,VWS V14.01,2013-06-14 20:42:00,
2013-06-14 15:47:00,98.2,50.3,28.23,NW,310,5.4,15.4,20,0.00,,---,0.00,VWS V14.01,2013-06-14 20:47:00,
2013-06-14 15:53:00,98.1,51.5,28.23,South,177,4.9,15.4,21,0.00,,---,0.00,VWS V14.01,2013-06-14 20:53:00,
2013-06-14 15:58:00,97.9,51.3,28.23,WSW,248,6.3,15.4,21,0.00,,---,0.00,VWS V14.01,2013-06-14 20:58:00,
2013-06-14 16:03:00,97.9,51.3,28.23,South,185,8.3,8.3,21,0.00,,---,0.00,VWS V14.01,2013-06-14 21:03:00,
2013-06-14 16:08:00,97.9,52.6,28.23,SE,144,4.0,8.3,22,0.00,,---,0.00,VWS V14.01,2013-06-14 21:08:00,
2013-06-14 16:13:00,97.9,52.6,28.23,SE,145,5.8,13.2,22,0.00,,---,0.00,VWS V14.01,2013-06-14 21:13:00,
2013-06-14 16:18:00,97.7,52.5,28.23,North,353,3.1,13.2,22,0.00,,---,0.00,VWS V14.01,2013-06-14 21:18:00,
2013-06-14 16:23:00,97.7,51.2,28.23,SSW,194,5.4,13.2,21,0.00,,---,0.00,VWS V14.01,2013-06-14 21:23:00,
2013-06-14 16:28:00,97.5,51.1,28.23,SSE,152,5.4,13.2,21,0.00,,---,0.00,VWS V14.01,2013-06-14 21:28:00,
2013-06-14 16:33:00,97.7,51.2,28.23,SSW,203,8.3,13.2,21,0.00,,---,0.00,VWS V14.01,2013-06-14 21:33:00,
2013-06-14 16:39:00,97.7,51.2,28.23,SE,124,4.0,13.2,21,0.00,,---,0.00,VWS V14.01,2013-06-14 21:39:00,
2013-06-14 16:44:00,97.7,51.2,28.23,NW,318,5.4,13.2,21,0.00,,---,0.00,VWS V14.01,2013-06-14 21:44:00,
2013-06-14 16:49:00,97.7,49.9,28.23,SSE,152,3.1,13.2,20,0.00,,---,0.00,VWS V14.01,2013-06-14 21:49:00,
2013-06-14 16:54:00,97.7,49.9,28.23,SSW,201,7.6,13.2,20,0.00,,---,0.00,VWS V14.01,2013-06-14 21:54:00,
2013-06-14 16:59:00,97.5,49.7,28.23,SE,144,4.0,13.2,20,0.00,,---,0.00,VWS V14.01,2013-06-14 21:59:00,
2013-06-14 17:04:00,97.5,51.1,28.23,SSW,211,3.1,8.7,21,0.00,,---,0.00,VWS V14.01,2013-06-14 22:04:00,
2013-06-14 17:09:00,97.5,51.1,28.23,SSE,152,3.6,8.7,21,0.00,,---,0.00,VWS V14.01,2013-06-14 22:09:00,
2013-06-14 17:14:00,97.5,51.1,28.23,SSE,164,5.8,8.7,21,0.00,,---,0.00,VWS V14.01,2013-06-14 22:14:00,
2013-06-14 17:19:00,97.3,50.9,28.23,SSW,201,2.7,8.7,21,0.00,,---,0.00,VWS V14.01,2013-06-14 22:19:00,
2013-06-14 17:24:00,97.2,50.8,28.20,SW,219,5.4,8.7,21,0.00,,---,0.00,VWS V14.01,2013-06-14 22:24:00,
2013-06-14 17:30:00,97.3,52.2,28.20,SE,127,5.8,8.7,22,0.00,,---,0.00,VWS V14.01,2013-06-14 22:30:00,
2013-06-14 17:35:00,97.3,50.9,28.20,ESE,112,4.9,8.7,21,0.00,,---,0.00,VWS V14.01,2013-06-14 22:35:00,
2013-06-14 17:40:00,97.2,49.5,28.23,SSW,212,6.3,10.1,20,0.00,,---,0.00,VWS V14.01,2013-06-14 22:40:00,
2013-06-14 17:45:00,97.2,49.5,28.23,SE,134,3.6,10.1,20,0.00,,---,0.00,VWS V14.01,2013-06-14 22:45:00,
2013-06-14 17:50:00,97.2,49.5,28.23,SE,137,2.7,10.1,20,0.00,,---,0.00,VWS V14.01,2013-06-14 22:50:00,
2013-06-14 17:55:00,97.0,49.3,28.23,SW,223,5.8,10.1,20,0.00,,---,0.00,VWS V14.01,2013-06-14 22:55:00,
2013-06-14 18:00:00,97.0,49.3,28.23,SW,232,4.0,5.8,20,0.00,,---,0.00,VWS V14.01,2013-06-14 23:00:00,
2013-06-14 18:05:00,97.0,49.3,28.23,SSE,151,3.6,7.6,20,0.00,,---,0.00,VWS V14.01,2013-06-14 23:05:00,
2013-06-14 18:10:00,96.8,49.2,28.23,SW,236,5.4,7.6,20,0.00,,---,0.00,VWS V14.01,2013-06-14 23:10:00,
2013-06-14 18:15:00,96.6,49.0,28.23,NW,320,2.7,7.6,20,0.00,,---,0.00,VWS V14.01,2013-06-14 23:15:00,
2013-06-14 18:21:00,96.4,48.9,28.23,WNW,295,6.3,7.6,20,0.00,,---,0.00,VWS V14.01,2013-06-14 23:21:00,
2013-06-14 18:26:00,96.3,47.3,28.23,South,175,5.4,8.7,19,0.00,,---,0.00,VWS V14.01,2013-06-14 23:26:00,
2013-06-14 18:31:00,96.1,48.6,28.23,SE,139,4.9,8.7,20,0.00,,---,0.00,VWS V14.01,2013-06-14 23:31:00,
2013-06-14 18:36:00,95.9,47.0,28.23,South,191,3.1,8.7,19,0.00,,---,0.00,VWS V14.01,2013-06-14 23:36:00,
2013-06-14 18:41:00,95.7,48.3,28.23,NNW,336,2.2,8.7,20,0.00,,---,0.00,VWS V14.01,2013-06-14 23:41:00,
2013-06-14 18:46:00,95.4,48.0,28.23,SSW,195,4.9,8.7,20,0.00,,---,0.00,VWS V14.01,2013-06-14 23:46:00,
2013-06-14 18:51:00,95.4,48.0,28.23,WSW,250,2.7,8.7,20,0.00,,---,0.00,VWS V14.01,2013-06-14 23:51:00,
2013-06-14 18:56:00,95.0,49.0,28.23,West,265,4.0,8.7,21,0.00,,---,0.00,VWS V14.01,2013-06-14 23:56:00,
2013-06-14 19:01:00,94.8,50.1,28.23,SE,136,3.6,5.4,22,0.00,,---,0.00,VWS V14.01,2013-06-15 00:01:00,
2013-06-14 19:07:00,94.6,51.1,28.23,WSW,255,4.0,5.8,23,0.00,,---,0.00,VWS V14.01,2013-06-15 00:07:00,
2013-06-14 19:12:00,94.5,51.0,28.23,SSW,194,0.0,5.8,23,0.00,,---,0.00,VWS V14.01,2013-06-15 00:12:00,
2013-06-14 19:17:00,94.3,53.1,28.23,WSW,249,2.2,5.8,25,0.00,,---,0.00,VWS V14.01,2013-06-15 00:17:00,
2013-06-14 19:22:00,93.9,52.8,28.23,South,170,2.7,6.3,25,0.00,,---,0.00,VWS V14.01,2013-06-15 00:22:00,
2013-06-14 19:27:00,93.7,53.7,28.23,WSW,240,2.7,6.3,26,0.00,,---,0.00,VWS V14.01,2013-06-15 00:27:00,
2013-06-14 19:32:00,93.4,53.4,28.23,WNW,291,2.7,6.3,26,0.00,,---,0.00,VWS V14.01,2013-06-15 00:32:00,
2013-06-14 19:37:00,93.2,54.3,28.23,SE,124,4.0,6.3,27,0.00,,---,0.00,VWS V14.01,2013-06-15 00:37:00,
2013-06-14 19:42:00,92.8,54.0,28.23,SW,228,3.6,6.3,27,0.00,,---,0.00,VWS V14.01,2013-06-15 00:42:00,
2013-06-14 19:47:00,92.5,53.7,28.23,SSW,206,3.6,6.3,27,0.00,,---,0.00,VWS V14.01,2013-06-15 00:47:00,
2013-06-14 19:53:00,92.3,53.5,28.23,West,269,2.7,6.3,27,0.00,,---,0.00,VWS V14.01,2013-06-15 00:53:00,
2013-06-14 19:58:00,91.8,53.1,28.23,South,184,2.2,6.3,27,0.00,,---,0.00,VWS V14.01,2013-06-15 00:58:00,
2013-06-14 20:03:00,91.2,53.6,28.23,South,184,0.0,0.0,28,0.00,,---,0.00,VWS V14.01,2013-06-15 01:03:00,
2013-06-14 20:08:00,90.9,53.3,28.23,South,181,0.0,0.0,28,0.00,,---,0.00,VWS V14.01,2013-06-15 01:08:00,
2013-06-14 20:13:00,90.5,53.9,28.23,South,181,0.0,0.0,29,0.00,,---,0.00,VWS V14.01,2013-06-15 01:13:00,
2013-06-14 20:18:00,90.0,53.5,28.23,South,181,0.0,0.0,29,0.00,,---,0.00,VWS V14.01,2013-06-15 01:18:00,
2013-06-14 20:23:00,89.4,53.9,28.26,South,181,0.0,0.0,30,0.00,,---,0.00,VWS V14.01,2013-06-15 01:23:00,
2013-06-14 20:28:00,88.9,54.4,28.26,South,181,0.0,0.0,31,0.00,,---,0.00,VWS V14.01,2013-06-15 01:28:00,
2013-06-14 20:33:00,88.3,54.8,28.26,South,181,0.0,2.7,32,0.00,,---,0.00,VWS V14.01,2013-06-15 01:33:00,
2013-06-14 20:38:00,88.0,54.5,28.26,SSW,209,2.7,3.6,32,0.00,,---,0.00,VWS V14.01,2013-06-15 01:38:00,
2013-06-14 20:43:00,87.4,54.8,28.26,ESE,120,3.1,4.0,33,0.00,,---,0.00,VWS V14.01,2013-06-15 01:43:00,
2013-06-14 20:49:00,87.1,54.5,28.26,WSW,248,3.1,5.4,33,0.00,,---,0.00,VWS V14.01,2013-06-15 01:49:00,
2013-06-14 20:54:00,87.1,54.5,28.26,SSE,163,2.7,5.4,33,0.00,,---,0.00,VWS V14.01,2013-06-15 01:54:00,
2013-06-14 20:59:00,86.9,54.4,28.26,South,171,4.0,5.4,33,0.00,,---,0.00,VWS V14.01,2013-06-15 01:59:00,
2013-06-14 21:04:00,86.5,54.9,28.26,SSE,158,3.1,4.0,34,0.00,,---,0.00,VWS V14.01,2013-06-15 02:04:00,
2013-06-14 21:09:00,86.2,54.5,28.26,SE,127,5.4,6.7,34,0.00,,---,0.00,VWS V14.01,2013-06-15 02:09:00,
2013-06-14 21:14:00,85.8,55.0,28.26,SSW,213,3.6,6.7,35,0.00,,---,0.00,VWS V14.01,2013-06-15 02:14:00,
2013-06-14 21:19:00,85.6,54.9,28.26,South,172,3.1,6.7,35,0.00,,---,0.00,VWS V14.01,2013-06-15 02:19:00,
2013-06-14 21:24:00,85.3,55.3,28.26,South,178,2.7,6.7,36,0.00,,---,0.00,VWS V14.01,2013-06-15 02:24:00,
2013-06-14 21:29:00,85.1,55.2,28.26,ENE,71,2.7,6.7,36,0.00,,---,0.00,VWS V14.01,2013-06-15 02:29:00,
2013-06-14 21:35:00,84.7,54.9,28.26,South,180,2.7,6.7,36,0.00,,---,0.00,VWS V14.01,2013-06-15 02:35:00,
2013-06-14 21:40:00,84.6,54.7,28.26,SSE,149,5.4,6.7,36,0.00,,---,0.00,VWS V14.01,2013-06-15 02:40:00,
2013-06-14 21:45:00,84.4,54.5,28.26,SSE,150,3.1,6.7,36,0.00,,---,0.00,VWS V14.01,2013-06-15 02:45:00,
2013-06-14 21:50:00,84.2,55.1,28.26,SE,140,4.0,6.7,37,0.00,,---,0.00,VWS V14.01,2013-06-15 02:50:00,
2013-06-14 21:55:00,83.8,55.5,28.26,SE,142,3.6,6.7,38,0.00,,---,0.00,VWS V14.01,2013-06-15 02:55:00,
2013-06-14 22:00:00,83.5,55.2,28.26,SE,126,3.6,4.0,38,0.00,,---,0.00,VWS V14.01,2013-06-15 03:00:00,
2013-06-14 22:05:00,83.3,55.1,28.26,SSE,157,3.6,4.0,38,0.00,,---,0.00,VWS V14.01,2013-06-15 03:05:00,
2013-06-14 22:10:00,82.9,55.5,28.26,SE,128,4.9,5.4,39,0.00,,---,0.00,VWS V14.01,2013-06-15 03:10:00,
2013-06-14 22:15:00,82.8,55.3,28.26,SW,220,5.4,5.4,39,0.00,,---,0.00,VWS V14.01,2013-06-15 03:15:00,
2013-06-14 22:20:00,82.8,55.3,28.26,South,191,0.0,5.4,39,0.00,,---,0.00,VWS V14.01,2013-06-15 03:20:00,
2013-06-14 22:25:00,82.6,55.1,28.29,South,177,2.7,5.4,39,0.00,,---,0.00,VWS V14.01,2013-06-15 03:25:00,
2013-06-14 22:30:00,82.4,55.0,28.29,SE,137,3.6,5.4,39,0.00,,---,0.00,VWS V14.01,2013-06-15 03:30:00,
2013-06-14 22:36:00,81.9,55.2,28.29,South,169,2.2,5.4,40,0.00,,---,0.00,VWS V14.01,2013-06-15 03:36:00,
2013-06-14 22:41:00,81.7,55.0,28.29,ESE,111,3.1,5.4,40,0.00,,---,0.00,VWS V14.01,2013-06-15 03:41:00,
2013-06-14 22:46:00,81.3,55.4,28.29,SSE,147,0.0,5.8,41,0.00,,---,0.00,VWS V14.01,2013-06-15 03:46:00,
2013-06-14 22:51:00,81.0,55.1,28.29,WSW,251,2.7,5.8,41,0.00,,---,0.00,VWS V14.01,2013-06-15 03:51:00,
2013-06-14 22:56:00,80.8,54.9,28.29,SSW,193,2.7,5.8,41,0.00,,---,0.00,VWS V14.01,2013-06-15 03:56:00,
2013-06-14 23:01:00,80.6,55.4,28.29,ESE,114,3.1,4.0,42,0.00,,---,0.00,VWS V14.01,2013-06-15 04:01:00,
2013-06-14 23:02:00,80.6,55.4,28.29,SW,232,3.6,4.0,42,0.00,,---,0.00,VWS V14.01,2013-06-15 04:02:00,
2013-06-14 23:05:00,80.6,54.8,28.29,SSE,165,3.1,4.0,41,0.00,,---,0.00,VWS V14.01,2013-06-15 04:05:00,
2013-06-14 23:10:00,80.6,54.8,28.29,SSE,167,2.7,4.9,41,0.00,,---,0.00,VWS V14.01,2013-06-15 04:10:00,
2013-06-14 23:15:00,80.6,54.8,28.29,SSE,166,2.2,4.9,41,0.00,,---,0.00,VWS V14.01,2013-06-15 04:15:00,
2013-06-14 23:21:00,80.4,55.2,28.29,SSE,168,0.0,4.9,42,0.00,,---,0.00,VWS V14.01,2013-06-15 04:21:00,
2013-06-14 23:26:00,80.4,55.2,28.29,South,176,2.7,4.9,42,0.00,,---,0.00,VWS V14.01,2013-06-15 04:26:00,
2013-06-14 23:31:00,80.2,55.1,28.29,SSE,160,2.2,4.9,42,0.00,,---,0.00,VWS V14.01,2013-06-15 04:31:00,
2013-06-14 23:36:00,80.2,55.1,28.29,ESE,108,0.0,4.9,42,0.00,,---,0.00,VWS V14.01,2013-06-15 04:36:00,
2013-06-14 23:41:00,80.1,54.9,28.29,NE,36,3.1,4.9,42,0.00,,---,0.00,VWS V14.01,2013-06-15 04:41:00,
2013-06-14 23:46:00,80.1,55.6,28.29,SSE,151,3.1,4.9,43,0.00,,---,0.00,VWS V14.01,2013-06-15 04:46:00,
2013-06-14 23:51:00,79.9,55.4,28.29,SE,126,2.7,4.9,43,0.00,,---,0.00,VWS V14.01,2013-06-15 04:51:00,
2013-06-14 23:56:00,79.9,56.0,28.29,South,175,2.2,5.4,44,0.00,,---,0.00,VWS V14.01,2013-06-15 04:56:00,